Time;durP1;ratioP1;P1;durP2;ratioP2;P2;SDS_P1;SDS_P2;PMS_P1;PMS_P2;Temp;Humidity;BMP_temperature;BMP_pressure;BME280_temperature;BME280_humidity;BME280_pressure;Samples;Min_cycle;Max_cycle;Signal;HPM_P1;HPM_P2
2022/06/05 00:01:36;;;;;;;;;11.75;11.75;;;;;20.33;75.26;100889.31;4974520;28;45273;-74
2022/06/05 00:04:14;;;;;;;;;13.25;8.00;;;;;20.32;75.78;100872.22;4974543;28;45484;-74
2022/06/05 00:07:05;;;;;;;;;8.00;8.00;;;;;20.32;75.53;100861.41;4972790;28;45495;-75
2022/06/05 00:09:48;;;;;;;;;7.50;5.75;;;;;20.30;76.00;100862.53;4974141;28;46015;-74
2022/06/05 00:12:18;;;;;;;;;10.50;10.50;;;;;20.28;75.48;100869.97;4973512;28;45416;-75
2022/06/05 00:14:44;;;;;;;;;8.25;8.00;;;;;20.28;75.76;100869.97;4975298;28;46029;-75
2022/06/05 00:17:20;;;;;;;;;12.25;12.25;;;;;20.26;76.12;100870.13;5005605;28;45469;-75
2022/06/05 00:19:48;;;;;;;;;12.50;11.00;;;;;20.24;76.22;100857.75;4974154;28;45447;-75
2022/06/05 00:22:14;;;;;;;;;10.50;9.75;;;;;20.24;75.82;100857.75;4974147;28;45486;-75
2022/06/05 00:24:40;;;;;;;;;11.25;10.50;;;;;20.22;75.95;100852.47;4974286;28;45982;-74
2022/06/05 00:27:42;;;;;;;;;12.00;11.50;;;;;20.21;76.15;100848.91;4975784;28;45423;-74
2022/06/05 00:30:14;;;;;;;;;12.25;12.25;;;;;20.18;76.08;100841.13;4975151;28;45506;-76
2022/06/05 00:33:14;;;;;;;;;11.50;11.50;;;;;20.20;75.79;100849.94;4967599;28;45564;-76
2022/06/05 00:35:53;;;;;;;;;13.50;13.50;;;;;20.22;76.01;100844.34;4966397;28;45726;-75
2022/06/05 00:38:31;;;;;;;;;15.25;13.00;;;;;20.22;75.84;100847.91;4970327;28;45336;-75
2022/06/05 00:41:25;;;;;;;;;12.75;9.75;;;;;20.24;75.85;100838.81;4970400;28;45459;-76
2022/06/05 00:43:54;;;;;;;;;13.50;13.50;;;;;20.25;75.89;100840.50;4970258;28;45543;-74
2022/06/05 00:46:23;;;;;;;;;11.25;10.00;;;;;20.25;75.83;100832.41;4969968;28;46840;-73
2022/06/05 00:48:48;;;;;;;;;12.00;12.00;;;;;20.26;76.26;100836.81;4972617;28;45424;-74
2022/06/05 00:51:14;;;;;;;;;19.25;18.00;;;;;20.26;76.23;100837.66;4972783;28;45450;-74
2022/06/05 00:53:39;;;;;;;;;18.75;18.75;;;;;20.25;75.92;100837.81;4971888;28;45417;-73
2022/06/05 00:56:10;;;;;;;;;20.00;18.00;;;;;20.26;76.05;100831.41;4973527;28;47207;-73
2022/06/05 00:58:35;;;;;;;;;13.25;13.25;;;;;20.24;75.74;100825.31;4970148;28;45408;-75
2022/06/05 01:01:01;;;;;;;;;14.50;13.00;;;;;20.22;75.92;100833.53;4970920;28;45791;-74
2022/06/05 01:03:27;;;;;;;;;7.50;7.50;;;;;20.19;75.94;100829.28;4974025;28;45611;-75
2022/06/05 01:05:52;;;;;;;;;12.00;12.00;;;;;20.16;75.84;100843.09;4972265;28;46205;-75
2022/06/05 01:08:18;;;;;;;;;11.00;11.00;;;;;20.15;76.03;100841.38;4969919;28;45404;-75
2022/06/05 01:10:58;;;;;;;;;13.50;13.50;;;;;20.18;75.73;100840.28;4970025;28;45381;-76
2022/06/05 01:13:37;;;;;;;;;14.50;12.50;;;;;20.18;75.98;100837.56;4962551;28;49066;-74
2022/06/05 01:16:19;;;;;;;;;10.50;9.75;;;;;20.17;76.46;100825.03;4972644;28;46061;-74
2022/06/05 01:19:15;;;;;;;;;11.50;11.50;;;;;20.16;76.04;100824.19;4969773;28;45440;-74
2022/06/05 01:22:21;;;;;;;;;11.00;11.00;;;;;20.13;76.35;100812.78;4967606;28;45597;-74
2022/06/05 01:25:08;;;;;;;;;12.25;11.25;;;;;20.11;76.41;100801.31;4970076;28;45900;-74
2022/06/05 01:27:36;;;;;;;;;15.00;12.50;;;;;20.08;76.54;100797.00;4968148;28;46178;-74
2022/06/05 01:30:16;;;;;;;;;12.00;12.00;;;;;20.05;76.38;100772.16;4966650;28;45479;-74
2022/06/05 01:32:52;;;;;;;;;11.00;11.00;;;;;20.06;76.16;100763.03;4975406;28;45504;-74
2022/06/05 01:35:31;;;;;;;;;12.00;10.75;;;;;20.05;76.45;100766.75;4972989;28;45476;-74
2022/06/05 01:38:05;;;;;;;;;13.50;12.50;;;;;20.04;76.62;100756.94;4973497;28;47794;-74
2022/06/05 01:40:37;;;;;;;;;10.75;10.75;;;;;20.04;76.42;100762.34;5005386;28;45990;-73
2022/06/05 01:43:18;;;;;;;;;12.75;12.25;;;;;20.00;76.10;100748.25;4973595;28;45615;-74
2022/06/05 01:45:46;;;;;;;;;10.25;10.25;;;;;19.97;76.58;100744.00;4969978;28;45529;-74
2022/06/05 01:48:27;;;;;;;;;11.75;10.25;;;;;19.97;76.70;100741.31;4975291;28;46615;-74
2022/06/05 01:51:06;;;;;;;;;13.25;12.25;;;;;19.97;76.54;100740.47;4975693;28;45409;-74
2022/06/05 01:53:47;;;;;;;;;15.50;14.00;;;;;19.95;76.57;100737.88;4966671;28;45427;-74
2022/06/05 01:56:22;;;;;;;;;11.75;10.75;;;;;19.96;76.63;100733.34;4972940;28;45479;-74
2022/06/05 01:58:56;;;;;;;;;14.75;13.00;;;;;19.94;76.47;100722.69;4969099;28;46367;-74
2022/06/05 02:01:26;;;;;;;;;11.25;11.25;;;;;19.95;76.63;100713.56;4969212;28;45557;-74
2022/06/05 02:04:01;;;;;;;;;13.00;12.25;;;;;19.96;76.26;100707.19;4970293;28;45408;-74
2022/06/05 02:06:35;;;;;;;;;12.50;12.50;;;;;19.96;76.50;100695.50;4972746;28;45605;-74
2022/06/05 02:09:11;;;;;;;;;13.25;12.00;;;;;19.96;76.73;100709.00;4965160;28;46499;-74
2022/06/05 02:11:36;;;;;;;;;13.25;12.00;;;;;19.96;76.51;100701.78;4969999;28;47141;-74
2022/06/05 02:14:06;;;;;;;;;11.50;11.50;;;;;19.93;76.68;100704.75;4968872;28;45537;-75
2022/06/05 02:16:35;;;;;;;;;13.75;12.00;;;;;19.92;76.39;100691.41;4969223;28;45495;-75
2022/06/05 02:19:04;;;;;;;;;12.00;11.00;;;;;19.89;76.54;100687.16;4968760;28;46136;-75
2022/06/05 02:21:32;;;;;;;;;13.50;11.25;;;;;19.90;76.78;100685.31;4972903;28;45483;-75
2022/06/05 02:23:57;;;;;;;;;10.25;10.00;;;;;19.89;77.06;100692.56;4971127;28;45400;-75
2022/06/05 02:26:23;;;;;;;;;12.00;12.00;;;;;19.88;76.68;100688.16;4973059;28;45540;-75
2022/06/05 02:28:48;;;;;;;;;13.75;13.25;;;;;19.90;76.82;100696.97;4968662;28;50536;-75
2022/06/05 02:31:19;;;;;;;;;16.25;14.75;;;;;19.89;77.10;100695.25;4968811;28;45384;-75
2022/06/05 02:34:22;;;;;;;;;15.00;15.00;;;;;19.90;76.79;100702.38;4971675;28;45477;-75
2022/06/05 02:37:07;;;;;;;;;17.00;14.00;;;;;19.91;76.61;100695.94;4968340;28;45594;-74
2022/06/05 02:39:39;;;;;;;;;27.50;25.25;;;;;19.92;76.78;100689.56;4967991;28;45447;-75
2022/06/05 02:43:00;;;;;;;;;38.25;32.25;;;;;19.95;76.75;100685.72;4997359;28;45328;-75
2022/06/05 02:45:36;;;;;;;;;19.00;19.00;;;;;19.95;76.81;100685.72;4876411;29;45816;-75
2022/06/05 02:48:10;;;;;;;;;21.50;20.75;;;;;19.95;76.61;100681.16;4892945;29;45444;-75
2022/06/05 02:50:44;;;;;;;;;19.00;17.25;;;;;19.95;76.34;100673.03;4876564;29;46244;-75
2022/06/05 02:53:11;;;;;;;;;22.50;18.50;;;;;19.97;76.15;100675.59;4876023;29;45482;-75
2022/06/05 02:55:37;;;;;;;;;21.75;20.50;;;;;19.97;76.42;100659.41;4876232;29;45397;-75
2022/06/05 02:58:04;;;;;;;;;14.50;14.50;;;;;19.97;76.20;100657.53;4876407;29;45527;-75
2022/06/05 03:00:32;;;;;;;;;17.50;14.75;;;;;19.98;76.03;100661.94;4875931;29;46385;-75
2022/06/05 03:05:43;;;;;;;;;12.50;12.50;;;;;19.95;76.32;100667.63;4876685;29;45708;-75
2022/06/05 03:08:11;;;;;;;;;13.00;13.00;;;;;19.95;76.31;100664.09;4875943;29;45489;-75
2022/06/05 03:10:37;;;;;;;;;16.50;15.25;;;;;19.92;76.14;100662.53;4875747;29;46321;-75
2022/06/05 03:13:02;;;;;;;;;13.50;13.50;;;;;19.89;76.62;100659.25;4875965;29;45494;-75
2022/06/05 03:15:29;;;;;;;;;21.00;15.50;;;;;19.89;76.16;100660.16;4875968;29;45458;-75
2022/06/05 03:17:54;;;;;;;;;13.00;13.00;;;;;19.87;76.35;100659.44;4876843;29;45735;-75
2022/06/05 03:20:20;;;;;;;;;16.25;15.00;;;;;19.87;76.27;100664.84;4963194;28;55053;-74
2022/06/05 03:22:46;;;;;;;;;14.50;13.75;;;;;19.87;76.37;100659.44;4976090;28;45567;-75
2022/06/05 03:25:16;;;;;;;;;16.50;15.50;;;;;19.90;76.13;100659.13;4977462;28;45493;-75
2022/06/05 03:27:42;;;;;;;;;14.50;12.50;;;;;19.94;75.71;100656.97;4977369;28;45647;-75
2022/06/05 03:30:08;;;;;;;;;13.25;13.00;;;;;19.99;75.05;100665.50;4962138;28;46599;-75
2022/06/05 03:32:33;;;;;;;;;10.25;10.25;;;;;20.03;74.27;100675.00;4966412;28;45502;-75
2022/06/05 03:34:59;;;;;;;;;15.25;13.75;;;;;20.05;73.89;100666.75;4966493;28;45597;-74
2022/06/05 03:37:24;;;;;;;;;13.50;13.25;;;;;20.06;74.12;100672.00;4966738;28;45369;-75
2022/06/05 03:39:49;;;;;;;;;12.25;11.75;;;;;20.10;73.80;100668.00;4964246;28;46400;-75
2022/06/05 03:42:15;;;;;;;;;13.50;13.25;;;;;20.12;73.74;100692.19;4962138;28;45355;-75
2022/06/05 03:44:42;;;;;;;;;13.50;11.75;;;;;20.14;73.51;100709.09;4965710;28;45402;-75
2022/06/05 03:47:08;;;;;;;;;12.50;12.50;;;;;20.13;73.80;100720.91;4966494;28;45606;-75
2022/06/05 03:49:34;;;;;;;;;13.25;13.25;;;;;20.14;73.61;100722.63;4983320;28;46447;-75
2022/06/05 03:52:02;;;;;;;;;10.25;10.25;;;;;20.14;73.64;100730.72;4977434;28;45557;-75
2022/06/05 03:54:27;;;;;;;;;15.25;13.25;;;;;20.11;74.00;100736.44;4960388;28;45526;-75
2022/06/05 03:56:52;;;;;;;;;12.50;11.25;;;;;20.12;74.11;100738.97;4963912;28;45362;-75
2022/06/05 03:59:18;;;;;;;;;9.50;9.50;;;;;20.11;74.53;100742.69;4966176;28;45329;-75
2022/06/05 04:01:43;;;;;;;;;10.00;10.00;;;;;20.12;74.33;100751.63;4971164;28;45503;-75
2022/06/05 04:04:08;;;;;;;;;14.00;12.25;;;;;20.10;74.13;100745.53;4977387;28;45360;-75
2022/06/05 04:06:34;;;;;;;;;11.75;11.00;;;;;20.07;74.52;100741.28;4977583;28;45485;-75
2022/06/05 04:09:02;;;;;;;;;11.50;10.25;;;;;20.05;74.40;100740.56;4977675;28;45466;-75
2022/06/05 04:11:30;;;;;;;;;9.00;9.00;;;;;20.04;74.73;100743.44;4977126;28;45571;-75
2022/06/05 04:13:56;;;;;;;;;12.25;12.25;;;;;20.00;74.43;100749.09;4974694;28;45499;-75
2022/06/05 04:16:25;;;;;;;;;14.00;13.00;;;;;20.04;74.37;100754.25;4976877;28;45430;-75
2022/06/05 04:18:52;;;;;;;;;15.25;15.25;;;;;20.02;74.51;100765.19;5008658;28;48279;-75
2022/06/05 04:21:25;;;;;;;;;15.50;12.00;;;;;20.03;74.60;100758.78;4976977;28;45783;-75
2022/06/05 04:23:51;;;;;;;;;9.00;9.00;;;;;20.03;73.90;100760.63;4976340;28;45483;-75
2022/06/05 04:26:23;;;;;;;;;12.00;11.00;;;;;20.04;73.43;100765.06;4976582;28;45546;-75
2022/06/05 04:28:48;;;;;;;;;12.25;11.25;;;;;20.03;73.97;100758.78;4976833;28;46459;-75
2022/06/05 04:31:21;;;;;;;;;10.50;10.50;;;;;20.02;74.57;100775.16;4975235;28;45343;-74
2022/06/05 04:33:48;;;;;;;;;8.50;8.50;;;;;19.99;74.59;100776.31;4976935;28;45551;-75
2022/06/05 04:36:13;;;;;;;;;12.50;12.00;;;;;19.96;75.20;100779.28;4976410;28;45362;-75
2022/06/05 04:38:39;;;;;;;;;9.75;9.75;;;;;19.93;75.35;100784.97;4976881;28;46105;-74
2022/06/05 04:41:04;;;;;;;;;14.00;14.00;;;;;19.89;75.41;100794.38;4976103;28;45352;-74
2022/06/05 04:43:29;;;;;;;;;14.00;14.00;;;;;19.87;75.58;100799.94;4977097;28;46190;-73
2022/06/05 04:45:55;;;;;;;;;11.75;11.75;;;;;19.86;75.72;100802.75;4976737;28;45403;-74
2022/06/05 04:48:20;;;;;;;;;12.75;12.75;;;;;19.85;75.71;100801.06;4976612;28;46118;-74
2022/06/05 04:50:45;;;;;;;;;12.00;11.75;;;;;19.84;75.92;100811.00;4975551;28;57114;-75
2022/06/05 04:53:11;;;;;;;;;15.25;14.25;;;;;19.84;75.93;100812.84;4974975;28;45608;-75
2022/06/05 04:55:37;;;;;;;;;12.75;10.50;;;;;19.82;76.21;100818.44;4976017;28;60026;-75
2022/06/05 04:58:03;;;;;;;;;14.00;12.25;;;;;19.81;76.87;100808.59;4982010;28;46886;-75
2022/06/05 05:00:28;;;;;;;;;14.50;13.25;;;;;19.82;76.11;100815.72;4991423;28;45457;-75
2022/06/05 05:02:53;;;;;;;;;10.50;10.50;;;;;19.83;76.38;100819.28;4976824;28;51665;-75
2022/06/05 05:05:19;;;;;;;;;17.00;12.25;;;;;19.83;76.58;100821.97;4976206;28;45450;-75
2022/06/05 05:07:44;;;;;;;;;12.25;12.25;;;;;19.83;76.45;100821.97;4975389;28;46529;-75
2022/06/05 05:10:10;;;;;;;;;14.75;14.00;;;;;19.84;76.48;100831.78;4975709;28;53677;-75
2022/06/05 05:12:36;;;;;;;;;14.00;11.75;;;;;19.86;76.10;100833.34;4976614;28;45404;-75
2022/06/05 05:15:01;;;;;;;;;17.25;14.00;;;;;19.86;76.33;100830.63;4977043;28;45352;-75
2022/06/05 05:17:27;;;;;;;;;12.75;10.25;;;;;19.87;76.28;100820.69;4975917;28;45412;-75
2022/06/05 05:19:52;;;;;;;;;13.50;10.75;;;;;19.87;76.61;100820.69;4976067;28;45469;-74
2022/06/05 05:22:18;;;;;;;;;12.00;12.00;;;;;19.90;76.55;100815.00;4976396;28;45389;-75
2022/06/05 05:24:44;;;;;;;;;12.75;12.75;;;;;19.93;76.33;100807.44;4976326;28;45389;-75
2022/06/05 05:27:10;;;;;;;;;11.00;11.00;;;;;19.98;76.45;100815.97;4976248;28;45510;-75
2022/06/05 05:29:39;;;;;;;;;12.25;11.75;;;;;20.00;76.46;100803.16;4976124;28;45357;-75
2022/06/05 05:32:04;;;;;;;;;13.00;13.00;;;;;20.03;75.90;100815.53;4976178;28;45484;-74
2022/06/05 05:34:30;;;;;;;;;10.00;10.00;;;;;20.05;76.00;100808.13;4975745;28;45484;-74
2022/06/05 05:36:55;;;;;;;;;16.00;13.50;;;;;20.09;75.93;100803.28;4975505;28;58367;-75
2022/06/05 05:42:04;;;;;;;;;16.25;15.50;;;;;20.17;75.67;100814.22;4972720;28;45464;-75
2022/06/05 05:44:38;;;;;;;;;14.00;12.00;;;;;20.21;75.59;100816.47;5007499;28;45290;-75
2022/06/05 05:47:06;;;;;;;;;17.25;17.25;;;;;20.26;75.53;100812.50;4975622;28;45369;-75
2022/06/05 05:49:31;;;;;;;;;14.50;14.50;;;;;20.29;75.37;100823.00;4975588;28;45305;-75
2022/06/05 05:51:57;;;;;;;;;17.00;14.75;;;;;20.30;75.42;100824.69;4975745;28;45409;-75
2022/06/05 05:54:22;;;;;;;;;16.75;16.75;;;;;20.34;75.60;100813.44;4975872;28;45435;-75
2022/06/05 05:56:48;;;;;;;;;20.50;17.75;;;;;20.36;75.67;100813.31;4976194;28;45410;-75
2022/06/05 05:59:13;;;;;;;;;16.25;16.00;;;;;20.38;75.36;100808.59;4975499;28;45531;-75
2022/06/05 06:01:38;;;;;;;;;19.25;16.75;;;;;20.40;75.78;100803.91;4975421;28;45515;-75
2022/06/05 06:04:04;;;;;;;;;20.50;16.25;;;;;20.42;75.56;100802.75;4971868;28;45411;-75
2022/06/05 06:06:32;;;;;;;;;19.00;17.25;;;;;20.45;75.41;100798.91;4975365;28;45273;-75
2022/06/05 06:08:59;;;;;;;;;16.50;16.50;;;;;20.51;74.98;100805.56;4975994;28;45524;-75
2022/06/05 06:11:25;;;;;;;;;16.25;16.25;;;;;20.53;75.17;100796.28;4975477;28;45435;-75
2022/06/05 06:13:51;;;;;;;;;18.75;17.75;;;;;20.57;75.68;100799.59;4974986;28;47563;-75
2022/06/05 06:16:17;;;;;;;;;15.00;14.25;;;;;20.58;75.59;100799.44;4974894;28;46141;-75
2022/06/05 06:18:43;;;;;;;;;16.50;13.25;;;;;20.60;75.44;100792.00;4988497;28;45444;-75
2022/06/05 06:21:09;;;;;;;;;19.00;18.00;;;;;20.64;75.43;100801.53;4975450;28;45385;-75
2022/06/05 06:23:34;;;;;;;;;16.75;16.25;;;;;20.65;75.55;100799.69;4975753;28;45311;-75
2022/06/05 06:26:03;;;;;;;;;16.25;16.25;;;;;20.68;75.38;100802.06;4975085;28;45409;-75
2022/06/05 06:28:28;;;;;;;;;15.50;15.50;;;;;20.70;75.31;100800.06;4975254;28;45522;-75
2022/06/05 06:30:54;;;;;;;;;18.75;14.50;;;;;20.70;74.59;100794.66;4973870;28;56306;-75
2022/06/05 06:33:19;;;;;;;;;16.50;14.00;;;;;20.72;74.54;100797.25;4974197;28;52131;-75
2022/06/05 06:35:44;;;;;;;;;12.75;12.75;;;;;20.72;74.41;100791.81;4975463;28;45357;-75
2022/06/05 06:38:10;;;;;;;;;13.75;13.25;;;;;20.72;74.52;100797.25;4970546;28;45524;-75
2022/06/05 06:40:36;;;;;;;;;13.50;13.25;;;;;20.71;74.06;100796.38;4974982;28;45432;-75
2022/06/05 06:43:02;;;;;;;;;11.00;11.00;;;;;20.69;73.85;100798.38;4975240;28;45408;-75
2022/06/05 06:45:28;;;;;;;;;10.75;10.75;;;;;20.71;73.99;100788.28;4974624;28;45475;-75
2022/06/05 06:47:53;;;;;;;;;12.50;9.25;;;;;20.69;74.13;100787.56;4974814;28;45429;-75
2022/06/05 06:50:19;;;;;;;;;9.50;8.25;;;;;20.68;74.26;100771.47;4974759;28;45215;-75
2022/06/05 06:52:44;;;;;;;;;10.25;10.25;;;;;20.73;74.06;100779.97;4973918;28;49765;-75
2022/06/05 06:55:16;;;;;;;;;9.75;9.25;;;;;20.76;74.30;100774.28;4975571;28;52963;-75
2022/06/05 06:57:42;;;;;;;;;11.50;11.50;;;;;20.76;73.66;100772.44;4978049;28;45467;-75
2022/06/05 07:00:08;;;;;;;;;9.25;9.25;;;;;20.80;74.03;100772.97;4976385;28;45559;-74
2022/06/05 07:02:33;;;;;;;;;9.50;9.50;;;;;20.82;74.08;100770.97;4977938;28;45506;-74
2022/06/05 07:04:59;;;;;;;;;9.00;9.00;;;;;20.84;74.30;100768.97;4977686;28;45447;-74
2022/06/05 07:07:24;;;;;;;;;10.00;10.00;;;;;20.84;73.65;100756.28;4978104;28;46553;-74
2022/06/05 07:09:49;;;;;;;;;9.25;9.25;;;;;20.84;74.00;100755.44;4977635;28;45333;-74
2022/06/05 07:12:17;;;;;;;;;8.25;8.25;;;;;20.88;73.82;100750.56;4974055;28;50286;-74
2022/06/05 07:14:43;;;;;;;;;8.00;8.00;;;;;20.88;73.78;100758.66;4977090;28;45329;-74
2022/06/05 07:17:09;;;;;;;;;10.00;9.00;;;;;20.90;73.63;100756.66;4976111;28;45508;-74
2022/06/05 07:19:35;;;;;;;;;10.00;10.00;;;;;20.90;74.06;100764.78;4977071;28;45325;-74
2022/06/05 07:22:00;;;;;;;;;9.50;8.75;;;;;20.89;73.93;100757.69;4976800;28;45476;-75
2022/06/05 07:24:26;;;;;;;;;9.75;8.75;;;;;20.86;73.64;100756.13;5000157;28;47264;-75
2022/06/05 07:26:51;;;;;;;;;8.00;8.00;;;;;20.88;73.49;100761.38;4976571;28;45420;-76
2022/06/05 07:29:16;;;;;;;;;11.50;9.50;;;;;20.90;73.57;100748.53;4976865;28;45397;-75
2022/06/05 07:31:42;;;;;;;;;10.75;10.00;;;;;20.94;72.72;100755.38;4977635;28;51609;-75
2022/06/05 07:34:08;;;;;;;;;9.50;8.75;;;;;20.95;73.03;100749.81;4974980;28;47907;-75
2022/06/05 07:36:34;;;;;;;;;12.25;10.50;;;;;20.99;72.92;100743.06;4971603;28;45491;-75
2022/06/05 07:39:02;;;;;;;;;11.50;11.50;;;;;21.06;73.30;100746.00;4977831;28;45434;-75
2022/06/05 07:41:34;;;;;;;;;9.00;8.00;;;;;21.07;72.75;100745.03;4964653;28;46949;-75
2022/06/05 07:44:00;;;;;;;;;10.75;10.00;;;;;21.09;73.14;100744.84;4951015;28;46208;-75
2022/06/05 07:46:27;;;;;;;;;9.50;9.00;;;;;21.11;73.42;100751.81;4952586;28;45965;-75
2022/06/05 07:48:52;;;;;;;;;11.75;11.75;;;;;21.16;73.26;100756.75;4952625;28;45892;-76
2022/06/05 07:54:28;;;;;;;;;12.25;10.00;;;;;21.17;73.21;100753.06;4949305;28;45952;-75
2022/06/05 07:56:56;;;;;;;;;9.00;7.50;;;;;21.23;73.44;100758.69;4951498;28;45819;-76
2022/06/05 07:59:22;;;;;;;;;10.00;9.75;;;;;21.26;73.02;100747.56;4952220;28;46073;-76
2022/06/05 08:01:47;;;;;;;;;9.00;9.00;;;;;21.31;72.50;100755.22;4952420;28;45903;-76
2022/06/05 08:04:13;;;;;;;;;7.50;7.50;;;;;21.35;72.48;100755.75;4952418;28;45786;-75
2022/06/05 08:06:39;;;;;;;;;9.25;9.25;;;;;21.39;72.58;100757.16;4951109;28;45436;-75
2022/06/05 08:09:05;;;;;;;;;7.50;7.50;;;;;21.43;72.02;100763.97;4952981;28;45570;-75
2022/06/05 08:11:32;;;;;;;;;9.75;9.25;;;;;21.43;72.24;100758.56;4958202;28;45686;-75
2022/06/05 08:13:58;;;;;;;;;9.25;9.25;;;;;21.47;72.18;100762.66;4991761;28;46192;-76
2022/06/05 08:16:23;;;;;;;;;6.00;6.00;;;;;21.52;72.55;100757.63;4975987;28;45527;-75
2022/06/05 08:18:51;;;;;;;;;8.75;8.00;;;;;21.56;72.35;100759.03;4976345;28;45399;-75
2022/06/05 08:21:20;;;;;;;;;10.00;7.00;;;;;21.61;71.70;100769.38;4976021;28;45544;-75
2022/06/05 08:23:46;;;;;;;;;9.00;8.50;;;;;21.66;71.91;100764.34;4974021;28;45984;-75
2022/06/05 08:26:11;;;;;;;;;6.25;6.25;;;;;21.69;71.91;100762.19;4975676;28;45314;-75
2022/06/05 08:28:37;;;;;;;;;7.00;7.00;;;;;21.74;70.69;100764.38;4974061;28;45488;-75
2022/06/05 08:31:02;;;;;;;;;9.50;8.00;;;;;21.76;69.86;100773.22;4976662;28;45544;-75
2022/06/05 08:33:28;;;;;;;;;8.50;8.50;;;;;21.82;69.96;100777.19;4976000;28;45412;-75
2022/06/05 08:35:53;;;;;;;;;6.75;6.75;;;;;21.85;69.81;100772.28;4974713;28;45358;-75
2022/06/05 08:41:27;;;;;;;;;7.00;6.00;;;;;21.88;68.43;100773.81;4976238;28;45476;-75
2022/06/05 08:44:05;;;;;;;;;5.50;5.50;;;;;21.89;68.13;100781.78;4975340;28;46203;-75
2022/06/05 08:46:53;;;;;;;;;6.75;6.75;;;;;21.89;67.98;100773.66;4974814;28;45534;-75
2022/06/05 08:49:36;;;;;;;;;7.00;7.00;;;;;21.88;68.22;100777.38;4975329;28;45415;-75
2022/06/05 08:52:16;;;;;;;;;5.50;5.50;;;;;21.90;67.69;100779.94;4976420;28;45326;-75
2022/06/05 08:54:56;;;;;;;;;7.00;6.50;;;;;21.92;68.12;100788.75;4965681;28;45552;-74
2022/06/05 08:57:43;;;;;;;;;5.75;5.75;;;;;21.97;68.72;100789.13;4975788;28;45317;-74
2022/06/05 09:00:17;;;;;;;;;10.50;7.25;;;;;22.01;68.31;100787.81;4973025;28;45368;-74
2022/06/05 09:02:51;;;;;;;;;6.25;6.25;;;;;22.01;67.85;100792.38;4976133;28;45460;-74
2022/06/05 09:05:40;;;;;;;;;7.50;7.00;;;;;22.01;67.69;100795.09;4974168;28;45506;-74
2022/06/05 09:08:12;;;;;;;;;8.00;6.75;;;;;22.03;67.66;100793.94;4974923;28;45517;-74
2022/06/05 09:10:46;;;;;;;;;7.25;6.00;;;;;22.06;67.63;100795.47;4975057;28;45488;-73
2022/06/05 09:13:28;;;;;;;;;7.75;6.50;;;;;22.06;67.31;100803.59;4970112;28;45672;-74
2022/06/05 09:16:03;;;;;;;;;6.25;6.25;;;;;22.08;67.94;100799.72;4974060;28;46199;-74
2022/06/05 09:18:37;;;;;;;;;7.50;7.25;;;;;22.07;67.44;100789.03;4972716;28;45591;-74
2022/06/05 09:21:20;;;;;;;;;5.50;5.00;;;;;22.10;67.48;100805.84;4975630;28;45413;-73
2022/06/05 09:24:13;;;;;;;;;6.25;6.25;;;;;22.11;67.81;100815.66;4974330;28;45485;-74
2022/06/05 09:26:52;;;;;;;;;7.00;6.00;;;;;22.13;67.35;100816.34;4974169;28;45340;-73
2022/06/05 09:29:43;;;;;;;;;8.50;8.00;;;;;22.11;67.23;100826.50;4973202;28;46854;-74
2022/06/05 09:32:08;;;;;;;;;5.50;5.50;;;;;22.12;67.28;100838.19;4974578;28;45550;-73
2022/06/05 09:34:43;;;;;;;;;7.00;7.00;;;;;22.09;67.46;100846.66;4974419;28;45466;-73
2022/06/05 09:37:19;;;;;;;;;8.75;7.00;;;;;22.05;67.09;100846.09;4974946;28;45488;-74
2022/06/05 09:39:52;;;;;;;;;8.75;7.75;;;;;22.04;67.34;100855.25;4981041;28;45463;-74
2022/06/05 09:42:57;;;;;;;;;6.25;6.25;;;;;21.97;67.38;100853.34;4982935;28;45427;-74
2022/06/05 09:46:00;;;;;;;;;7.50;7.50;;;;;21.87;67.72;100865.13;4978407;28;45571;-74
2022/06/05 09:48:49;;;;;;;;;9.00;9.00;;;;;21.82;67.46;100858.47;4977413;28;46869;-74
2022/06/05 09:51:17;;;;;;;;;8.00;8.00;;;;;21.82;67.78;100856.63;4973582;28;45527;-74
2022/06/05 09:53:54;;;;;;;;;8.25;8.25;;;;;21.84;68.27;100843.75;4979612;28;45763;-74
2022/06/05 09:56:22;;;;;;;;;6.00;6.00;;;;;21.85;68.72;100847.31;4973622;28;45391;-74
2022/06/05 09:59:11;;;;;;;;;9.75;7.75;;;;;21.89;69.14;100837.88;5002792;28;47360;-75
2022/06/05 10:01:49;;;;;;;;;9.00;9.00;;;;;21.92;68.50;100845.69;4979910;28;45408;-75
2022/06/05 10:04:15;;;;;;;;;9.00;9.00;;;;;21.94;68.56;100838.25;4981889;28;45463;-75
2022/06/05 10:06:45;;;;;;;;;10.00;10.00;;;;;21.97;68.45;100847.94;4982327;28;45546;-75
2022/06/05 10:09:23;;;;;;;;;8.50;7.25;;;;;21.97;68.56;100845.22;4984818;28;46194;-75
2022/06/05 10:11:54;;;;;;;;;8.00;8.00;;;;;22.02;68.54;100849.13;4980312;28;45566;-75
2022/06/05 10:14:51;;;;;;;;;10.00;10.00;;;;;22.05;67.70;100856.09;4978377;28;48134;-75
2022/06/05 10:17:49;;;;;;;;;11.00;11.00;;;;;21.99;67.12;100851.34;4972550;28;45293;-80
2022/06/05 10:20:15;;;;;;;;;10.50;8.75;;;;;21.99;67.79;100860.31;4974536;28;47434;-79
2022/06/05 10:22:57;;;;;;;;;7.25;6.75;;;;;21.90;67.96;100863.97;4973640;28;45523;-79
2022/06/05 10:25:53;;;;;;;;;9.00;8.00;;;;;21.87;68.57;100859.72;4974657;28;45480;-79
2022/06/05 10:28:22;;;;;;;;;9.00;9.00;;;;;21.84;68.16;100870.88;4973425;28;47418;-79
2022/06/05 10:31:02;;;;;;;;;10.75;10.75;;;;;21.78;68.00;100860.63;4985146;28;47258;-80
2022/06/05 10:33:39;;;;;;;;;12.50;12.00;;;;;21.76;68.12;100857.22;4974226;28;45420;-80
2022/06/05 10:36:18;;;;;;;;;8.50;8.50;;;;;21.79;68.14;100864.19;4971281;28;45557;-79
2022/06/05 10:38:53;;;;;;;;;12.50;11.25;;;;;21.73;67.09;100864.84;4972724;28;45586;-81
2022/06/05 10:41:22;;;;;;;;;11.75;10.50;;;;;21.73;67.39;100873.81;4973892;28;45455;-81
2022/06/05 10:44:05;;;;;;;;;11.75;10.50;;;;;21.71;67.88;100864.97;4973873;28;45472;-80
2022/06/05 10:46:34;;;;;;;;;10.50;9.25;;;;;21.62;67.09;100877.63;4973129;28;45587;-80
2022/06/05 10:49:14;;;;;;;;;11.00;11.00;;;;;21.58;67.48;100869.94;4974095;28;45460;-80
2022/06/05 10:51:57;;;;;;;;;13.25;12.75;;;;;21.54;67.49;100866.69;4961982;28;45409;-80
2022/06/05 10:54:37;;;;;;;;;13.25;10.25;;;;;21.55;67.10;100867.53;4973837;28;45391;-79
2022/06/05 10:57:12;;;;;;;;;11.00;10.50;;;;;21.53;67.35;100877.66;4972675;28;45566;-79
2022/06/05 10:59:59;;;;;;;;;10.50;10.50;;;;;21.52;67.72;100879.53;4974249;28;45536;-79
2022/06/05 11:03:01;;;;;;;;;11.00;11.00;;;;;21.51;67.34;100887.81;4973142;28;45527;-80
2022/06/05 11:05:38;;;;;;;;;12.75;12.75;;;;;21.49;67.29;100898.81;4972912;28;45482;-78
2022/06/05 11:08:31;;;;;;;;;12.25;12.25;;;;;21.41;67.45;100904.16;4974493;28;45370;-80
2022/06/05 11:14:08;;;;;;;;;15.00;14.25;;;;;21.35;67.27;100897.44;4950116;28;45540;-79
2022/06/05 11:17:05;;;;;;;;;12.25;12.25;;;;;21.35;66.81;100902.84;4951001;28;45471;-80
2022/06/05 11:19:43;;;;;;;;;14.25;12.00;;;;;21.34;67.00;100905.72;4951452;28;45473;-80
2022/06/05 11:22:13;;;;;;;;;12.25;12.25;;;;;21.33;66.80;100899.44;4945155;28;45418;-80
2022/06/05 11:24:48;;;;;;;;;11.50;10.75;;;;;21.29;66.14;100898.06;4951212;28;45457;-81
2022/06/05 11:27:34;;;;;;;;;18.25;13.75;;;;;21.26;66.52;100904.63;4954242;28;45642;-77
2022/06/05 11:30:42;;;;;;;;;14.75;14.00;;;;;21.31;66.93;100904.19;4950894;28;45456;-81
2022/06/05 11:33:10;;;;;;;;;14.75;13.50;;;;;21.34;66.60;100898.44;4877607;29;45677;-80
2022/06/05 11:35:47;;;;;;;;;13.25;12.50;;;;;21.36;67.12;100903.69;4874707;29;47383;-79
2022/06/05 11:38:31;;;;;;;;;14.25;12.25;;;;;21.42;67.21;100905.84;4877952;29;45522;-78
2022/06/05 11:41:19;;;;;;;;;14.50;14.50;;;;;21.42;67.39;100908.53;4882698;29;45462;-78
2022/06/05 11:43:47;;;;;;;;;16.25;13.25;;;;;21.44;67.29;100910.09;4885999;29;45570;-79
2022/06/05 11:46:25;;;;;;;;;15.50;15.50;;;;;21.43;66.63;100918.38;4891543;29;45586;-79
2022/06/05 11:49:06;;;;;;;;;34.00;25.00;;;;;21.45;67.12;100925.38;4887001;29;45565;-79
2022/06/05 11:51:52;;;;;;;;;15.00;15.00;;;;;21.44;66.56;100933.63;4909802;28;45437;-78